createdAt,value
2022-10-19T00:02:07.404Z,93.29
2022-10-19T00:04:34.503Z,93.70
2022-10-19T00:07:01.430Z,93.89
2022-10-19T00:09:29.066Z,93.60
2022-10-19T00:11:56.157Z,93.40
2022-10-19T00:14:24.455Z,93.29
2022-10-19T00:16:52.546Z,93.32
2022-10-19T00:19:22.512Z,93.40
2022-10-19T00:24:17.027Z,92.94
2022-10-19T00:26:43.594Z,93.59
2022-10-19T00:29:13.004Z,93.52
2022-10-19T00:31:39.927Z,93.25
2022-10-19T00:34:06.452Z,92.80
2022-10-19T00:36:36.510Z,93.78
2022-10-19T00:39:08.786Z,93.67
2022-10-19T00:41:37.316Z,93.68
2022-10-19T00:44:12.256Z,94.01
2022-10-19T00:46:41.979Z,94.04
2022-10-19T00:49:19.780Z,94.16
2022-10-19T00:51:53.351Z,93.94
2022-10-19T00:54:20.971Z,94.09
2022-10-19T00:56:51.744Z,93.71
2022-10-19T00:59:25.298Z,93.79
2022-10-19T01:01:52.831Z,94.20
2022-10-19T01:04:23.383Z,93.64
2022-10-19T01:09:17.774Z,92.79
2022-10-19T01:11:54.480Z,92.71
2022-10-19T01:14:26.795Z,92.70
2022-10-19T01:16:59.459Z,93.27
2022-10-19T01:19:45.765Z,93.12
2022-10-19T01:22:38.391Z,93.07
2022-10-19T01:25:31.495Z,93.12
2022-10-19T01:28:11.923Z,93.25
2022-10-19T01:30:53.452Z,93.00
2022-10-19T01:33:51.051Z,92.29
2022-10-19T01:36:27.395Z,92.32
2022-10-19T01:39:04.083Z,93.04
2022-10-19T01:41:42.392Z,93.03
2022-10-19T01:44:22.998Z,93.93
2022-10-19T01:47:03.003Z,93.22
2022-10-19T01:49:43.715Z,93.07
2022-10-19T01:52:14.851Z,93.39
2022-10-19T01:54:49.785Z,94.07
2022-10-19T01:57:23.362Z,94.04
2022-10-19T01:59:50.635Z,94.85
2022-10-19T02:02:18.464Z,95.69
2022-10-19T02:04:47.132Z,95.68
2022-10-19T02:07:14.335Z,95.36
2022-10-19T02:09:40.671Z,95.73
2022-10-19T02:12:10.850Z,95.51
2022-10-19T02:14:42.839Z,94.83
2022-10-19T02:17:12.692Z,94.68
2022-10-19T02:19:39.495Z,94.26
2022-10-19T02:22:07.261Z,94.45
2022-10-19T02:24:33.647Z,94.25
2022-10-19T02:27:01.653Z,94.24
2022-10-19T02:29:28.830Z,94.64
2022-10-19T02:31:55.182Z,94.49
2022-10-19T02:34:22.147Z,94.52
2022-10-19T02:36:49.683Z,94.60
2022-10-19T02:39:16.415Z,94.68
2022-10-19T02:41:50.219Z,94.36
2022-10-19T02:44:25.456Z,93.88
2022-10-19T02:47:02.211Z,94.22
2022-10-19T02:49:30.863Z,94.65
2022-10-19T02:52:03.815Z,94.84
2022-10-19T02:54:31.035Z,94.35
2022-10-19T02:56:57.492Z,94.21
2022-10-19T02:59:24.455Z,94.34
2022-10-19T03:01:51.593Z,94.83
2022-10-19T03:04:17.966Z,95.55
2022-10-19T03:06:44.527Z,95.69
2022-10-19T03:09:10.855Z,95.08
2022-10-19T03:11:37.198Z,94.79
2022-10-19T03:14:04.100Z,95.11
2022-10-19T03:16:30.419Z,95.40
2022-10-19T03:18:56.766Z,95.03
2022-10-19T03:21:23.659Z,94.97
2022-10-19T03:23:50.361Z,94.83
2022-10-19T03:26:17.829Z,94.49
2022-10-19T03:28:44.321Z,94.55
2022-10-19T03:31:11.403Z,94.99
2022-10-19T03:33:37.745Z,95.42
2022-10-19T03:36:25.404Z,94.90
2022-10-19T03:38:56.466Z,94.82
2022-10-19T03:41:25.062Z,94.83
2022-10-19T03:43:52.169Z,94.39
2022-10-19T03:46:19.172Z,94.81
2022-10-19T03:48:46.324Z,94.97
2022-10-19T03:51:19.507Z,94.74
2022-10-19T03:53:46.741Z,93.96
2022-10-19T03:56:16.265Z,93.90
2022-10-19T03:58:44.565Z,93.71
2022-10-19T04:01:17.023Z,93.48
2022-10-19T04:03:43.847Z,93.93
2022-10-19T04:06:17.031Z,94.01
2022-10-19T04:08:48.476Z,94.07
2022-10-19T04:11:21.510Z,93.85
2022-10-19T04:13:50.239Z,94.07
2022-10-19T04:16:17.767Z,93.70
2022-10-19T04:18:44.723Z,94.03
2022-10-19T04:21:23.174Z,93.74
2022-10-19T04:23:54.528Z,94.01
2022-10-19T04:26:21.157Z,93.60
2022-10-19T04:28:48.051Z,92.91
2022-10-19T04:31:14.766Z,93.61
2022-10-19T04:33:41.445Z,93.46
2022-10-19T04:36:10.790Z,93.46
2022-10-19T04:38:38.352Z,93.57
2022-10-19T04:41:07.714Z,93.77
2022-10-19T04:43:34.439Z,93.48
2022-10-19T04:46:05.582Z,94.03
2022-10-19T04:48:32.815Z,94.00
2022-10-19T04:50:59.316Z,93.92
2022-10-19T04:53:26.301Z,93.36
2022-10-19T04:55:52.787Z,93.72
2022-10-19T04:58:19.300Z,92.74
2022-10-19T05:00:46.105Z,93.56
2022-10-19T05:03:12.559Z,93.55
2022-10-19T05:05:38.990Z,93.59
2022-10-19T05:08:05.824Z,93.29
2022-10-19T05:10:32.298Z,93.37
2022-10-19T05:13:01.295Z,93.44
2022-10-19T05:15:28.704Z,93.04
2022-10-19T05:17:55.421Z,93.56
2022-10-19T05:20:22.439Z,93.58
2022-10-19T05:22:49.171Z,93.76
2022-10-19T05:25:16.047Z,93.77
2022-10-19T05:27:42.533Z,94.29
2022-10-19T05:30:09.736Z,93.62
2022-10-19T05:32:36.059Z,93.88
2022-10-19T05:35:02.939Z,93.89
2022-10-19T05:37:29.251Z,93.93
2022-10-19T05:39:55.595Z,93.79
2022-10-19T05:42:22.241Z,93.27
2022-10-19T05:44:48.551Z,93.80
2022-10-19T05:47:14.931Z,94.00
2022-10-19T05:49:41.820Z,94.25
2022-10-19T05:52:08.152Z,94.53
2022-10-19T05:54:35.916Z,94.27
2022-10-19T05:57:02.922Z,94.18
2022-10-19T05:59:29.237Z,94.29
2022-10-19T06:01:56.351Z,94.03
2022-10-19T06:04:23.986Z,94.23
2022-10-19T06:06:50.329Z,93.86
2022-10-19T06:09:17.206Z,93.78
2022-10-19T06:11:43.723Z,94.08
2022-10-19T06:14:15.643Z,93.38
2022-10-19T06:16:42.428Z,93.53
2022-10-19T06:19:08.852Z,93.21
2022-10-19T06:21:35.653Z,92.66
2022-10-19T06:24:04.707Z,93.00
2022-10-19T06:26:32.884Z,93.65
2022-10-19T06:29:01.112Z,93.48
2022-10-19T06:31:29.131Z,93.48
2022-10-19T06:33:55.990Z,93.00
2022-10-19T06:36:25.552Z,93.01
2022-10-19T06:38:53.112Z,92.99
2022-10-19T06:41:19.836Z,93.15
2022-10-19T06:43:53.712Z,92.59
2022-10-19T06:46:23.348Z,92.41
2022-10-19T06:49:01.593Z,92.26
2022-10-19T06:51:30.150Z,92.40
2022-10-19T06:53:57.535Z,92.67
2022-10-19T06:56:26.629Z,92.11
2022-10-19T06:58:54.169Z,92.21
2022-10-19T07:01:21.376Z,92.51
2022-10-19T07:03:48.268Z,92.11
2022-10-19T07:06:15.066Z,91.75
2022-10-19T07:08:43.720Z,92.34
2022-10-19T07:11:15.185Z,92.00
2022-10-19T07:13:41.622Z,91.56
2022-10-19T07:16:20.642Z,91.37
2022-10-19T07:18:48.223Z,91.06
2022-10-19T07:21:16.473Z,91.13
2022-10-19T07:23:44.099Z,90.95
2022-10-19T07:26:18.112Z,90.77
2022-10-19T07:28:46.708Z,90.68
2022-10-19T07:31:18.189Z,90.63
2022-10-19T07:33:45.896Z,90.60
2022-10-19T07:36:13.702Z,90.30
2022-10-19T07:38:41.087Z,90.16
2022-10-19T07:41:12.572Z,89.79
2022-10-19T07:43:41.047Z,90.28
2022-10-19T07:46:10.997Z,89.47
2022-10-19T07:48:37.403Z,89.48
2022-10-19T07:51:07.728Z,90.17
2022-10-19T07:53:34.883Z,89.16
2022-10-19T07:56:19.712Z,89.67
2022-10-19T07:58:46.394Z,89.64
2022-10-19T08:01:15.673Z,86.27
2022-10-19T08:04:31.713Z,87.62
2022-10-19T08:06:29.481Z,86.86
2022-10-19T08:08:56.500Z,86.87
2022-10-19T08:11:26.289Z,84.64
2022-10-19T08:13:54.364Z,86.12
2022-10-19T08:16:25.746Z,83.49
2022-10-19T08:18:53.359Z,85.27
2022-10-19T08:21:20.081Z,84.87
2022-10-19T08:23:46.907Z,84.41
2022-10-19T08:26:13.260Z,83.00
2022-10-19T08:28:39.641Z,83.47
2022-10-19T08:31:15.215Z,84.03
2022-10-19T08:33:42.172Z,84.28
2022-10-19T08:36:11.102Z,83.68
2022-10-19T08:38:38.335Z,83.76
2022-10-19T08:41:38.217Z,84.13
2022-10-19T08:44:26.477Z,82.57
2022-10-19T08:47:03.873Z,83.38
2022-10-19T08:49:31.967Z,83.52
2022-10-19T08:52:12.611Z,83.87
2022-10-19T08:55:01.129Z,82.35
2022-10-19T08:58:11.055Z,81.07
2022-10-19T09:00:43.801Z,82.26
2022-10-19T09:03:37.732Z,79.78
2022-10-19T09:06:45.335Z,79.35
2022-10-19T09:09:18.331Z,78.71
2022-10-19T09:11:49.666Z,80.52
2022-10-19T09:14:42.386Z,79.87
2022-10-19T09:17:17.287Z,78.41
2022-10-19T09:19:43.623Z,79.58
2022-10-19T09:22:19.968Z,78.84
2022-10-19T09:24:55.986Z,78.64
2022-10-19T09:27:25.199Z,78.03
2022-10-19T09:29:56.651Z,78.10
2022-10-19T09:32:32.983Z,78.60
2022-10-19T09:35:07.140Z,77.19
2022-10-19T09:37:40.647Z,79.03
2022-10-19T09:40:17.051Z,79.60
2022-10-19T09:42:43.414Z,79.76
2022-10-19T09:45:19.743Z,77.66
2022-10-19T09:47:48.354Z,76.30
2022-10-19T09:50:22.487Z,78.42
2022-10-19T09:52:55.188Z,76.63
2022-10-19T09:55:44.020Z,76.13
2022-10-19T09:58:13.532Z,76.12
2022-10-19T10:00:46.076Z,76.00
2022-10-19T10:03:28.611Z,75.96
2022-10-19T10:06:12.377Z,76.34
2022-10-19T10:08:48.044Z,77.42
2022-10-19T10:11:24.084Z,77.78
2022-10-19T10:13:56.058Z,78.24
2022-10-19T10:16:30.166Z,77.01
2022-10-19T10:19:00.119Z,76.04
2022-10-19T10:21:45.295Z,75.06
2022-10-19T10:24:11.733Z,74.21
2022-10-19T10:26:46.424Z,74.33
2022-10-19T10:29:21.643Z,74.78
2022-10-19T10:31:52.586Z,73.62
2022-10-19T10:34:37.654Z,73.93
2022-10-19T10:37:39.118Z,74.57
2022-10-19T10:40:19.857Z,74.56
2022-10-19T10:42:49.863Z,74.14
2022-10-19T10:45:23.239Z,72.06
2022-10-19T10:47:50.306Z,69.12
2022-10-19T10:50:22.823Z,69.51
2022-10-19T10:53:34.164Z,69.68
2022-10-19T10:56:01.800Z,69.97
2022-10-19T10:58:37.107Z,69.31
2022-10-19T11:01:08.053Z,69.42
2022-10-19T11:03:37.608Z,69.72
2022-10-19T11:06:04.170Z,69.79
2022-10-19T11:08:44.443Z,70.63
2022-10-19T11:11:25.586Z,70.73
2022-10-19T11:14:20.488Z,69.46
2022-10-19T11:16:50.007Z,69.44
2022-10-19T11:19:27.908Z,69.72
2022-10-19T11:22:21.308Z,68.75
2022-10-19T11:25:13.458Z,69.65
2022-10-19T11:28:07.555Z,68.93
2022-10-19T11:30:50.535Z,69.32
2022-10-19T11:33:37.191Z,69.44
2022-10-19T11:36:32.515Z,71.35
2022-10-19T11:39:09.941Z,70.47
2022-10-19T11:41:45.910Z,69.77
2022-10-19T11:44:27.074Z,69.48
2022-10-19T11:47:30.116Z,69.13
2022-10-19T11:53:02.536Z,66.95
2022-10-19T11:55:45.710Z,67.29
2022-10-19T11:58:34.618Z,65.71
2022-10-19T12:01:20.658Z,65.51
2022-10-19T12:04:12.856Z,66.75
2022-10-19T12:07:06.030Z,67.55
2022-10-19T12:10:13.948Z,65.97
2022-10-19T12:12:47.751Z,65.37
2022-10-19T12:15:46.422Z,64.94
2022-10-19T12:18:39.615Z,64.73
2022-10-19T12:21:24.604Z,63.54
2022-10-19T12:23:52.457Z,63.36
2022-10-19T12:26:21.813Z,64.42
2022-10-19T12:29:07.595Z,64.01
2022-10-19T12:31:35.889Z,64.35
2022-10-19T12:34:21.324Z,64.41
2022-10-19T12:37:07.312Z,64.52
2022-10-19T12:39:49.806Z,64.52
2022-10-19T12:42:29.719Z,66.10
2022-10-19T12:45:19.282Z,65.12
2022-10-19T12:48:16.034Z,65.63
2022-10-19T12:51:04.075Z,64.73
2022-10-19T12:53:39.991Z,65.70
2022-10-19T12:56:09.035Z,64.40
2022-10-19T12:58:46.607Z,64.53
2022-10-19T13:01:34.341Z,63.63
2022-10-19T13:04:15.583Z,62.92
2022-10-19T13:06:56.891Z,62.34
2022-10-19T13:09:26.832Z,62.75
2022-10-19T13:12:25.662Z,62.71
2022-10-19T13:14:55.473Z,62.73
2022-10-19T13:17:34.460Z,62.68
2022-10-19T13:20:16.506Z,63.43
2022-10-19T13:22:49.664Z,64.20
2022-10-19T13:25:15.918Z,64.55
2022-10-19T13:27:49.299Z,63.62
2022-10-19T13:30:34.250Z,62.92
2022-10-19T13:33:21.638Z,63.35
2022-10-19T13:35:49.452Z,62.98
2022-10-19T13:38:16.246Z,63.04
2022-10-19T13:40:48.523Z,63.86
2022-10-19T13:43:21.443Z,62.23
2022-10-19T13:46:03.971Z,63.36
2022-10-19T13:48:43.274Z,63.70
2022-10-19T13:51:30.957Z,64.18
2022-10-19T13:54:06.843Z,64.57
2022-10-19T13:57:06.283Z,63.32
2022-10-19T13:59:59.362Z,63.41
2022-10-19T14:02:57.164Z,63.76
2022-10-19T14:05:29.884Z,62.71
2022-10-19T14:08:18.050Z,62.44
2022-10-19T14:11:00.595Z,63.35
2022-10-19T14:13:28.134Z,63.42
2022-10-19T14:15:56.775Z,64.24
2022-10-19T14:18:26.853Z,65.32
2022-10-19T14:21:08.004Z,65.88
2022-10-19T14:23:42.995Z,66.95
2022-10-19T14:26:19.404Z,66.94
2022-10-19T14:28:51.596Z,67.29
2022-10-19T14:31:22.118Z,67.73
2022-10-19T14:33:52.451Z,66.72
2022-10-19T14:36:22.641Z,66.20
2022-10-19T14:38:52.255Z,66.73
2022-10-19T14:41:29.594Z,66.39
2022-10-19T14:43:57.209Z,66.32
2022-10-19T14:46:30.198Z,65.67
2022-10-19T14:49:04.181Z,66.31
2022-10-19T14:51:40.718Z,66.60
2022-10-19T14:54:15.866Z,66.74
2022-10-19T14:56:56.891Z,67.29
2022-10-19T14:59:37.348Z,66.98
2022-10-19T15:02:38.958Z,67.51
2022-10-19T15:05:15.859Z,67.55
2022-10-19T15:07:43.290Z,67.61
2022-10-19T15:10:19.517Z,67.56
2022-10-19T15:12:46.348Z,67.98
2022-10-19T15:15:26.398Z,67.85
2022-10-19T15:17:56.455Z,68.37
2022-10-19T15:20:24.940Z,68.25
2022-10-19T15:22:51.778Z,68.89
2022-10-19T15:25:27.328Z,69.32
2022-10-19T15:27:54.235Z,69.99
2022-10-19T15:30:28.366Z,70.58
2022-10-19T15:33:10.436Z,71.20
2022-10-19T15:35:39.742Z,70.24
2022-10-19T15:38:10.640Z,70.63
2022-10-19T15:40:40.742Z,71.40
2022-10-19T15:43:33.246Z,70.88
2022-10-19T15:46:31.891Z,71.12
2022-10-19T15:49:23.675Z,71.54
2022-10-19T15:51:51.349Z,71.17
2022-10-19T15:54:19.073Z,70.79
2022-10-19T15:56:47.740Z,71.04
2022-10-19T15:59:17.570Z,71.81
2022-10-19T16:01:45.485Z,72.40
2022-10-19T16:04:11.840Z,72.22
2022-10-19T16:06:40.903Z,72.17
2022-10-19T16:09:08.420Z,72.19
2022-10-19T16:11:35.298Z,72.34
2022-10-19T16:14:02.230Z,72.58
2022-10-19T16:16:31.764Z,72.68
2022-10-19T16:18:59.302Z,72.37
2022-10-19T16:21:30.027Z,73.00
2022-10-19T16:23:56.781Z,73.04
2022-10-19T16:26:25.335Z,72.71
2022-10-19T16:28:53.096Z,73.10
2022-10-19T16:31:20.604Z,73.54
2022-10-19T16:33:46.933Z,73.68
2022-10-19T16:36:13.496Z,73.35
2022-10-19T16:38:40.337Z,72.97
2022-10-19T16:41:09.019Z,73.93
2022-10-19T16:43:35.999Z,74.35
2022-10-19T16:46:03.431Z,74.02
2022-10-19T16:48:31.100Z,74.86
2022-10-19T16:51:12.332Z,74.61
2022-10-19T16:53:39.319Z,74.39
2022-10-19T16:56:08.639Z,74.63
2022-10-19T16:58:36.964Z,74.01
2022-10-19T17:01:12.977Z,74.38
2022-10-19T17:03:39.416Z,74.94
2022-10-19T17:06:06.910Z,74.76
2022-10-19T17:09:02.715Z,75.03
2022-10-19T17:11:24.542Z,75.46
2022-10-19T17:13:52.868Z,76.00
2022-10-19T17:16:21.349Z,76.05
2022-10-19T17:18:48.756Z,76.29
2022-10-19T17:21:19.503Z,76.75
2022-10-19T17:23:46.175Z,77.81
2022-10-19T17:26:12.865Z,77.88
2022-10-19T17:28:40.796Z,78.44
2022-10-19T17:31:10.099Z,78.49
2022-10-19T17:33:37.242Z,78.55
2022-10-19T17:36:13.495Z,78.74
2022-10-19T17:38:40.642Z,78.01
2022-10-19T17:41:13.466Z,77.84
2022-10-19T17:43:41.110Z,78.31
2022-10-19T17:46:10.365Z,78.51
2022-10-19T17:48:38.588Z,78.49
2022-10-19T17:51:12.264Z,78.00
2022-10-19T17:53:38.742Z,78.62
2022-10-19T17:56:07.102Z,78.85
2022-10-19T17:58:39.042Z,78.54
2022-10-19T18:01:06.891Z,78.68
2022-10-19T18:03:35.471Z,78.47
2022-10-19T18:06:10.734Z,78.84
2022-10-19T18:08:40.909Z,78.60
2022-10-19T18:11:13.510Z,78.44
2022-10-19T18:13:40.482Z,78.64
2022-10-19T18:16:13.807Z,78.62
2022-10-19T18:18:42.163Z,78.89
2022-10-19T18:21:12.220Z,79.10
2022-10-19T18:23:39.690Z,78.98
2022-10-19T18:26:09.406Z,78.95
2022-10-19T18:28:36.146Z,79.49
2022-10-19T18:31:13.906Z,79.53
2022-10-19T18:33:41.080Z,79.28
2022-10-19T18:36:09.073Z,79.55
2022-10-19T18:38:37.556Z,80.07
2022-10-19T18:41:11.555Z,80.39
2022-10-19T18:43:41.988Z,80.58
2022-10-19T18:46:09.492Z,80.21
2022-10-19T18:48:38.231Z,80.93
2022-10-19T18:51:07.163Z,80.85
2022-10-19T18:53:34.779Z,81.60
2022-10-19T18:56:06.820Z,82.25
2022-10-19T18:58:33.963Z,82.55
2022-10-19T19:01:14.433Z,83.42
2022-10-19T19:03:43.355Z,84.01
2022-10-19T19:06:12.939Z,83.25
2022-10-19T19:08:39.656Z,83.16
2022-10-19T19:11:18.218Z,83.58
2022-10-19T19:13:54.106Z,84.24
2022-10-19T19:16:21.765Z,84.18
2022-10-19T19:18:48.410Z,84.26
2022-10-19T19:21:14.753Z,83.77
2022-10-19T19:23:41.816Z,83.31
2022-10-19T19:26:09.285Z,84.38
2022-10-19T19:28:37.925Z,84.65
2022-10-19T19:31:08.258Z,84.06
2022-10-19T19:33:34.963Z,84.61
2022-10-19T19:36:05.308Z,84.54
2022-10-19T19:38:32.295Z,85.18
2022-10-19T19:40:58.637Z,84.34
2022-10-19T19:43:25.041Z,84.56
2022-10-19T19:46:03.150Z,85.00
2022-10-19T19:48:32.679Z,84.93
2022-10-19T19:50:59.007Z,84.76
2022-10-19T19:53:25.339Z,85.15
2022-10-19T19:55:52.160Z,85.35
2022-10-19T19:58:18.875Z,84.84
2022-10-19T20:00:46.204Z,85.24
2022-10-19T20:03:13.635Z,85.11
2022-10-19T20:05:40.728Z,85.21
2022-10-19T20:08:08.400Z,85.37
2022-10-19T20:10:43.008Z,85.09
2022-10-19T20:13:10.116Z,85.48
2022-10-19T20:15:39.558Z,85.32
2022-10-19T20:18:06.440Z,85.89
2022-10-19T20:20:33.254Z,86.06
2022-10-19T20:22:59.880Z,86.08
2022-10-19T20:25:26.506Z,86.00
2022-10-19T20:27:52.856Z,86.17
2022-10-19T20:30:19.752Z,86.66
2022-10-19T20:32:46.050Z,86.86
2022-10-19T20:35:12.414Z,86.33
2022-10-19T20:37:39.128Z,86.15
2022-10-19T20:40:08.747Z,86.84
2022-10-19T20:42:36.110Z,87.48
2022-10-19T20:45:03.751Z,88.16
2022-10-19T20:47:30.099Z,87.74
2022-10-19T20:49:56.580Z,86.94
2022-10-19T20:52:23.314Z,87.38
2022-10-19T20:54:49.638Z,87.28
2022-10-19T20:57:16.368Z,86.86
2022-10-19T20:59:43.801Z,87.21
2022-10-19T21:02:12.126Z,86.73
2022-10-19T21:04:38.609Z,86.74
2022-10-19T21:07:05.082Z,87.13
2022-10-19T21:09:31.804Z,86.91
2022-10-19T21:11:58.871Z,87.38
2022-10-19T21:14:28.426Z,86.91
2022-10-19T21:16:58.074Z,87.61
2022-10-19T21:19:26.105Z,87.32
2022-10-19T21:21:55.369Z,87.45
2022-10-19T21:24:29.725Z,87.28
2022-10-19T21:26:56.078Z,87.88
2022-10-19T21:29:22.429Z,88.13
2022-10-19T21:31:50.451Z,87.86
2022-10-19T21:34:20.109Z,87.83
2022-10-19T21:36:47.791Z,88.26
2022-10-19T21:39:14.785Z,89.17
2022-10-19T21:41:41.311Z,88.10
2022-10-19T21:44:07.683Z,88.21
2022-10-19T21:46:34.815Z,88.28
2022-10-19T21:49:01.240Z,88.73
2022-10-19T21:52:03.756Z,88.28
2022-10-19T21:54:30.331Z,88.84
2022-10-19T21:56:58.907Z,88.41
2022-10-19T21:59:25.289Z,88.22
2022-10-19T22:01:54.347Z,88.45
2022-10-19T22:04:21.535Z,88.42
2022-10-19T22:06:47.883Z,88.75
2022-10-19T22:09:17.216Z,89.02
2022-10-19T22:11:44.129Z,88.77
2022-10-19T22:14:13.099Z,89.23
2022-10-19T22:16:40.615Z,88.70
2022-10-19T22:19:07.096Z,89.25
2022-10-19T22:21:35.614Z,88.98
2022-10-19T22:24:08.809Z,89.43
2022-10-19T22:26:38.490Z,89.41
2022-10-19T22:29:05.923Z,90.07
2022-10-19T22:31:33.972Z,89.07
2022-10-19T22:34:02.159Z,89.38
2022-10-19T22:36:28.536Z,89.87
2022-10-19T22:38:55.625Z,90.07
2022-10-19T22:41:22.140Z,90.48
2022-10-19T22:43:48.467Z,90.27
2022-10-19T22:46:15.263Z,90.30
2022-10-19T22:48:41.560Z,90.76
2022-10-19T22:51:07.920Z,90.38
2022-10-19T22:53:34.639Z,91.32
2022-10-19T22:56:01.418Z,91.17
2022-10-19T22:58:27.731Z,90.81
2022-10-19T23:01:23.910Z,91.12
2022-10-19T23:03:50.235Z,90.25
2022-10-19T23:06:16.576Z,90.74
2022-10-19T23:08:44.435Z,90.67
2022-10-19T23:11:11.723Z,90.50
2022-10-19T23:13:38.204Z,90.67
2022-10-19T23:16:05.605Z,90.54
2022-10-19T23:18:33.488Z,90.48
2022-10-19T23:21:02.520Z,90.49
2022-10-19T23:23:30.855Z,90.71
2022-10-19T23:26:20.290Z,89.96
2022-10-19T23:28:48.867Z,89.89
2022-10-19T23:31:23.474Z,90.45
2022-10-19T23:33:50.644Z,91.02
2022-10-19T23:36:28.180Z,90.75
2022-10-19T23:38:56.939Z,90.28
2022-10-19T23:41:23.646Z,90.08
2022-10-19T23:43:50.268Z,89.86
2022-10-19T23:46:17.701Z,89.99
2022-10-19T23:48:44.131Z,89.30
2022-10-19T23:51:15.699Z,89.16
2022-10-19T23:53:44.526Z,88.64
2022-10-19T23:56:17.209Z,88.77
2022-10-19T23:58:43.756Z,89.03
